Bay Area Logo

Alameda, CA Single Family Real Estate Listings

72 Total Real Estate Listings * Click on table heading to sort
Date Posted Property Type Style Address Price Living Area Lot Size Price/Sq Ft.
2018-11-12 Single Family Craftsman 1113 Pearl St Alameda, CA 94501 $895,000 1,353 sq. ft. 4,356 sq. ft. $661
2018-11-12 Single Family 2801 Marina Dr Alameda, CA 94501 $1,088,000 1,451 sq. ft. 9,148 sq. ft. $750
2018-11-12 Single Family Contemporary; Mediterranean 399 Tucker Ave Alameda, CA 94501 $999,000 2,361 sq. ft. 3,049 sq. ft. $423
2018-11-11 Single Family Bungalow 1037 Fountain Street Alameda, CA 94501 $750,000 1,223 sq. ft. 3,920 sq. ft. $613
2018-11-09 Single Family Cottage 1816 Wood St Alameda, CA 94501 $749,000 834 sq. ft. 3,920 sq. ft. $898
2018-11-08 Single Family Tudor 301 Haight Ave Alameda, CA 94501 $795,000 1,201 sq. ft. 3,049 sq. ft. $662
2018-11-05 Single Family Contemporary 144 Justin Circle Alameda, CA 94502 $935,000 1,405 sq. ft. 5,663 sq. ft. $665
2018-11-05 Single Family Contemporary 30 Maitland Dr Alameda, CA 94502 $688,000 1,036 sq. ft. 5,227 sq. ft. $664
2018-11-05 Single Family Victorian 1824 Saint Charles St Alameda, CA 94501 $720,000 901 sq. ft. 4,356 sq. ft. $799
2018-11-03 Single Family Victorian 3268 Encinal Ave Alameda, CA 94501 $598,000 795 sq. ft. 3,049 sq. ft. $752
2018-11-02 Single Family Contemporary 1802 Sakas St Alameda, CA 94501 $1,280,000 2,213 sq. ft. 3,485 sq. ft. $578
2018-11-02 Single Family Contemporary 438 Tucker Ave Alameda, CA 94501 $995,000 2,219 sq. ft. 3,049 sq. ft. $448
2018-11-01 Single Family Craftsman 1630 Foley St Alameda, CA 94501 $750,000 1,073 sq. ft. 3,485 sq. ft. $699
2018-10-29 Single Family Contemporary 122 Purcell Dr Alameda, CA 94502 $995,000 2,370 sq. ft. 3,920 sq. ft. $420
2018-10-28 Single Family Contemporary 508 Central Ave Alameda, CA 94501 $1,499,000 3,961 sq. ft. 10,454 sq. ft. $378
2018-10-27 Single Family Mediterranean 1401 Santa Clara Ave Alameda, CA 94501 $795,000 1,316 sq. ft. 3,485 sq. ft. $604
2018-10-26 Single Family Contemporary 260 Hollister Ave Alameda, CA 94501 $999,000 2,361 sq. ft. 3,485 sq. ft. $423
2018-10-26 Single Family Floating Home 2394 Mariner Square Dr B-5 Alameda, CA 94501 $420,000 640 sq. ft. $656
2018-10-26 Single Family Contemporary 1171 Hillery Way Alameda, CA 94502 $928,000 1,913 sq. ft. 2,614 sq. ft. $485
2018-10-25 Single Family Ranch 3214 Washington St Alameda, CA 94501 $899,000 1,193 sq. ft. 4,356 sq. ft. $754
2018-10-25 Single Family Tudor 1544 Versailles Ave Alameda, CA 94501 $995,000 1,206 sq. ft. 4,792 sq. ft. $825
2018-10-25 Single Family Contemporary 81 Basinside Way Alameda, CA 94502 $1,325,000 2,500 sq. ft. 3,920 sq. ft. $530
2018-10-25 Single Family Victorian 2051 Alameda Avenue Alameda, CA 94501 $895,000 1,200 sq. ft. 3,920 sq. ft. $746
2018-10-25 Single Family Contemporary 1702 Kofman Pkwy Alameda, CA 94502 $1,595,000 2,587 sq. ft. 6,098 sq. ft. $617
2018-10-25 Single Family Bungalow; Craftsman 1200 Court St Alameda, CA 94501 $850,000 1,195 sq. ft. 3,920 sq. ft. $711
2018-10-24 Single Family Bungalow 1622 Saint Charles Street Alameda, CA 94501 $779,000 891 sq. ft. 2,614 sq. ft. $874
2018-10-20 Single Family Contemporary 129 Bannister Way Alameda, CA 94502 $699,000 1,033 sq. ft. 2,614 sq. ft. $677
2018-10-18 Single Family Brown Shingle; Colonial 1405 San Antonio Ave Alameda, CA 94501 $3,200,000 6,465 sq. ft. 10,019 sq. ft. $495
2018-10-18 Single Family Contemporary; Farm House; Mid Century Modern 410 Taylor Ave Alameda, CA 94501 $795,000 1,019 sq. ft. 3,485 sq. ft. $780
2018-10-18 Single Family Contemporary 338 Mcdonnel Rd Alameda, CA 94502 $895,000 1,772 sq. ft. 3,049 sq. ft. $505
2018-10-15 Single Family Traditional 19 Thurles Pl Alameda, CA 94502 $1,080,000 2,047 sq. ft. 4,356 sq. ft. $528
2018-10-15 Single Family Bungalow 1815 Cambridge Dr Alameda, CA 94501 $1,149,000 1,882 sq. ft. 3,920 sq. ft. $611
2018-10-12 Single Family Custom 854 Cedar St Alameda, CA 94501 $899,000 1,368 sq. ft. 5,227 sq. ft. $657
2018-10-12 Single Family Ranch 1052 Camellia Drive Alameda, CA 94502 $876,000 1,623 sq. ft. 5,663 sq. ft. $540
2018-10-11 Single Family Contemporary 215 Cheswick Ct Alameda, CA 94502 $849,950 1,623 sq. ft. 4,356 sq. ft. $524
2018-10-11 Single Family 2 Cohen Ct Alameda, CA 94501 $899,000 1,622 sq. ft. 2,614 sq. ft. $554
2018-10-11 Single Family Mid Century Modern 1027 Auburn Ct Alameda, CA 94502 $995,000 1,260 sq. ft. 6,534 sq. ft. $790
2018-10-09 Single Family Contemporary 86 Vista Rd Alameda, CA 94502 $1,638,000 2,070 sq. ft. 4,356 sq. ft. $791
2018-10-08 Single Family 3264 Encinal Ave Alameda, CA 94501 $995,000 1,534 sq. ft. 4,356 sq. ft. $649
2018-10-08 Single Family Contemporary 1407 9th St Alameda, CA 94501 $849,000 1,568 sq. ft. 3,485 sq. ft. $541
2018-10-05 Single Family Craftsman 416 Santa Clara Ave Alameda, CA 94501 $1,149,000 1,908 sq. ft. 7,405 sq. ft. $602
2018-10-05 Single Family Contemporary 300 Mcdonnel Rd Alameda, CA 94502 $975,000 1,625 sq. ft. 4,356 sq. ft. $600
2018-10-05 Single Family Victorian 1128 Morton St Alameda, CA 94501 $1,249,000 2,150 sq. ft. 3,485 sq. ft. $581
2018-10-03 Single Family Contemporary 31 Oak Park Dr Alameda, CA 94502 $779,000 1,658 sq. ft. 2,614 sq. ft. $470
2018-09-30 Single Family Contemporary; Floating Home 2394 Mariner Square Drive C1 Alameda, CA 94501 $600,000 1,152 sq. ft. $521
2018-09-28 Single Family Traditional 3209 Thompson Ave Alameda, CA 94501 $1,275,000 2,008 sq. ft. 8,712 sq. ft. $635
2018-09-27 Single Family Bungalow 1314 Pacific Ave Alameda, CA 94501 $799,000 1,046 sq. ft. 3,485 sq. ft. $764
2018-09-27 Single Family Colonial; Traditional 2237 Pacific Ave Alameda, CA 94501 $1,195,000 3,071 sq. ft. 7,405 sq. ft. $389
2018-09-26 Single Family Contemporary 107 Bay Park Ter Alameda, CA 94502 $849,000 1,419 sq. ft. 0 sq. ft. $598
2018-09-26 Single Family 1183 Park Ave Alameda, CA 94501 $1,398,000 2,147 sq. ft. 3,049 sq. ft. $651
2018-09-24 Single Family Victorian 1827 Bay St Alameda, CA 94501 $995,000 2,158 sq. ft. 4,792 sq. ft. $461
2018-09-24 Single Family Victorian 3262 Central Ave Alameda, CA 94501 $989,000 2,180 sq. ft. 4,356 sq. ft. $454
2018-09-19 Single Family Victorian 1821 Chapin St Alameda, CA 94501 $945,000 1,894 sq. ft. 3,049 sq. ft. $499
2018-09-18 Single Family Ranch 1008 Azalea Dr Alameda, CA 94502 $825,000 1,196 sq. ft. 3,920 sq. ft. $690
2018-09-18 Single Family Contemporary 419 Dewitt Ln Alameda, CA 94501 $1,425,000 3,336 sq. ft. 3,049 sq. ft. $427
2018-09-15 Single Family Bungalow; Craftsman 2205 Clinton Avenue Alameda, CA 94501 $785,000 1,106 sq. ft. 3,920 sq. ft. $710
2018-09-12 Single Family Contemporary 162 Oak Park Dr Alameda, CA 94502 $769,000 1,658 sq. ft. 2,178 sq. ft. $464
2018-09-06 Single Family Craftsman 1918 Chestnut St Alameda, CA 94501 $785,000 1,022 sq. ft. 2,614 sq. ft. $768
2018-09-06 Single Family Contemporary 1552 Clement Ave Alameda, CA 94501 $1,250,000 2,287 sq. ft. 2,178 sq. ft. $547
2018-09-06 Single Family Contemporary 73 Sand Harbor Rd Alameda, CA 94502 $1,650,000 2,774 sq. ft. 6,534 sq. ft. $595
2018-09-06 Single Family Contemporary 2051 Hibbard St Alameda, CA 94501 $1,150,000 2,678 sq. ft. 3,049 sq. ft. $429
2018-08-31 Single Family Contemporary 2757 5th Street Alameda, CA 94502 $1,680,000 3,336 sq. ft. 3,049 sq. ft. $504
2018-08-25 Single Family Mid Century Modern 1514 Eastshore Dr Alameda, CA 94501 $1,250,000 1,412 sq. ft. 4,792 sq. ft. $885
2018-08-17 Single Family Brown Shingle; Victorian 2531 Webb Ave Alameda, CA 94501 $749,000 1,088 sq. ft. 4,356 sq. ft. $688
2018-08-16 Single Family Cape Cod 1825 Everett St Alameda, CA 94501 $895,000 2,156 sq. ft. 4,792 sq. ft. $415
2018-06-02 Single Family Contemporary 2981 Northwood Dr Alameda, CA 94501 $1,198,000 2,940 sq. ft. 6,534 sq. ft. $407
2017-06-17 Single Family 1075 Foster St Alameda, CA 94502 $899,000 1,525 sq. ft. 2,043 sq. ft. $590
2017-06-05 Single Family 2751 5th St Alameda, CA 94501 $1,375,900 2,530 sq. ft. 3,049 sq. ft. $544
2017-05-25 Single Family Bungalow 1123 Versailles Ave Alameda, CA 94501 $649,950 974 sq. ft. 4,312 sq. ft. $667
2017-04-28 Single Family Cottage 1534 Saint Charles St Alameda, CA 94501 $899,000 1,053 sq. ft. 7,841 sq. ft. $854
2016-12-09 Single Family Bungalow 3210 Liberty Ave Alameda, CA 94501 $849,000 1,142 sq. ft. 4,356 sq. ft. $743
2016-11-01 Single Family Contemporary 490 Diller St Alameda, CA 94501 $1,011,140 1,777 sq. ft. 1,786 sq. ft. $569